sensor_id;sensor_type;location;lat;lon;timestamp;pressure;altitude;pressure_sealevel;temperature;humidity
25947;BME280;13745;51.470;9.894;2023-02-15T00:01:05;60756.69;;;-143.79;100.00
25947;BME280;13745;51.470;9.894;2023-02-15T00:03:51;60756.69;;;-143.79;100.00
25947;BME280;13745;51.470;9.894;2023-02-15T00:06:36;60756.69;;;-143.79;100.00
25947;BME280;13745;51.470;9.894;2023-02-15T00:09:22;60756.69;;;-143.79;100.00
25947;BME280;13745;51.470;9.894;2023-02-15T00:12:09;60756.69;;;-143.79;100.00
25947;BME280;13745;51.470;9.894;2023-02-15T00:14:54;60756.69;;;-143.79;100.00
25947;BME280;13745;51.470;9.894;2023-02-15T00:17:39;60756.69;;;-143.79;100.00
25947;BME280;13745;51.470;9.894;2023-02-15T00:20:24;60756.69;;;-143.79;100.00
25947;BME280;13745;51.470;9.894;2023-02-15T00:23:09;60756.69;;;-143.79;100.00
25947;BME280;13745;51.470;9.894;2023-02-15T00:26:04;60756.69;;;-143.79;100.00
25947;BME280;13745;51.470;9.894;2023-02-15T00:28:50;60756.69;;;-143.79;100.00
25947;BME280;13745;51.470;9.894;2023-02-15T00:31:37;60756.69;;;-143.79;100.00
25947;BME280;13745;51.470;9.894;2023-02-15T00:34:24;60756.69;;;-143.79;100.00
25947;BME280;13745;51.470;9.894;2023-02-15T00:37:09;60756.69;;;-143.79;100.00
25947;BME280;13745;51.470;9.894;2023-02-15T00:39:54;60756.69;;;-143.79;100.00
25947;BME280;13745;51.470;9.894;2023-02-15T00:42:40;60756.69;;;-143.79;100.00
25947;BME280;13745;51.470;9.894;2023-02-15T00:45:26;60756.69;;;-143.79;100.00
25947;BME280;13745;51.470;9.894;2023-02-15T00:48:10;60756.69;;;-143.79;100.00
25947;BME280;13745;51.470;9.894;2023-02-15T00:50:58;60756.69;;;-143.79;100.00
25947;BME280;13745;51.470;9.894;2023-02-15T00:53:43;60756.69;;;-143.79;100.00
25947;BME280;13745;51.470;9.894;2023-02-15T00:56:29;60756.69;;;-143.79;100.00
25947;BME280;13745;51.470;9.894;2023-02-15T00:59:15;60756.69;;;-143.79;100.00
25947;BME280;13745;51.470;9.894;2023-02-15T01:02:00;60756.69;;;-143.79;100.00
25947;BME280;13745;51.470;9.894;2023-02-15T01:04:47;60756.69;;;-143.79;100.00
25947;BME280;13745;51.470;9.894;2023-02-15T01:07:33;60756.69;;;-143.79;100.00
25947;BME280;13745;51.470;9.894;2023-02-15T01:10:18;60756.69;;;-143.79;100.00
25947;BME280;13745;51.470;9.894;2023-02-15T01:13:03;60756.69;;;-143.79;100.00
25947;BME280;13745;51.470;9.894;2023-02-15T01:15:55;60756.69;;;-143.79;100.00
25947;BME280;13745;51.470;9.894;2023-02-15T01:18:41;60756.69;;;-143.79;100.00
25947;BME280;13745;51.470;9.894;2023-02-15T01:21:26;60756.69;;;-143.79;100.00
25947;BME280;13745;51.470;9.894;2023-02-15T01:24:12;60756.69;;;-143.79;100.00
25947;BME280;13745;51.470;9.894;2023-02-15T01:26:57;60756.69;;;-143.79;100.00
25947;BME280;13745;51.470;9.894;2023-02-15T01:29:44;60756.69;;;-143.79;100.00
25947;BME280;13745;51.470;9.894;2023-02-15T01:32:34;60756.69;;;-143.79;100.00
25947;BME280;13745;51.470;9.894;2023-02-15T01:35:19;60756.69;;;-143.79;100.00
25947;BME280;13745;51.470;9.894;2023-02-15T01:38:04;60756.69;;;-143.79;100.00
25947;BME280;13745;51.470;9.894;2023-02-15T01:40:50;60756.69;;;-143.79;100.00
25947;BME280;13745;51.470;9.894;2023-02-15T01:43:40;60756.69;;;-143.79;100.00
25947;BME280;13745;51.470;9.894;2023-02-15T01:46:28;60756.69;;;-143.79;100.00
25947;BME280;13745;51.470;9.894;2023-02-15T01:49:19;60756.69;;;-143.79;100.00
25947;BME280;13745;51.470;9.894;2023-02-15T01:52:05;60756.69;;;-143.79;100.00
25947;BME280;13745;51.470;9.894;2023-02-15T01:54:50;60756.69;;;-143.79;100.00
25947;BME280;13745;51.470;9.894;2023-02-15T01:57:36;60756.69;;;-143.79;100.00
25947;BME280;13745;51.470;9.894;2023-02-15T02:00:22;60756.69;;;-143.79;100.00
25947;BME280;13745;51.470;9.894;2023-02-15T02:03:08;60756.69;;;-143.79;100.00
25947;BME280;13745;51.470;9.894;2023-02-15T02:05:54;60756.69;;;-143.79;100.00
25947;BME280;13745;51.470;9.894;2023-02-15T02:08:40;60756.69;;;-143.79;100.00
25947;BME280;13745;51.470;9.894;2023-02-15T02:11:26;60756.69;;;-143.79;100.00
25947;BME280;13745;51.470;9.894;2023-02-15T02:14:12;60756.69;;;-143.79;100.00
25947;BME280;13745;51.470;9.894;2023-02-15T02:17:06;60756.69;;;-143.79;100.00
25947;BME280;13745;51.470;9.894;2023-02-15T02:20:15;60756.69;;;-143.79;100.00
25947;BME280;13745;51.470;9.894;2023-02-15T02:23:23;60756.69;;;-143.79;100.00
25947;BME280;13745;51.470;9.894;2023-02-15T02:26:40;60756.69;;;-143.79;100.00
25947;BME280;13745;51.470;9.894;2023-02-15T02:29:47;60756.69;;;-143.79;100.00
25947;BME280;13745;51.470;9.894;2023-02-15T02:32:53;60756.69;;;-143.79;100.00
25947;BME280;13745;51.470;9.894;2023-02-15T02:35:50;60756.69;;;-143.79;100.00
25947;BME280;13745;51.470;9.894;2023-02-15T02:38:48;60756.69;;;-143.79;100.00
25947;BME280;13745;51.470;9.894;2023-02-15T02:41:44;60756.69;;;-143.79;100.00
25947;BME280;13745;51.470;9.894;2023-02-15T02:44:39;60756.69;;;-143.79;100.00
25947;BME280;13745;51.470;9.894;2023-02-15T02:47:30;60756.69;;;-143.79;100.00
25947;BME280;13745;51.470;9.894;2023-02-15T02:50:23;60756.69;;;-143.79;100.00
25947;BME280;13745;51.470;9.894;2023-02-15T02:53:09;60756.69;;;-143.79;100.00
25947;BME280;13745;51.470;9.894;2023-02-15T02:55:56;60756.69;;;-143.79;100.00
25947;BME280;13745;51.470;9.894;2023-02-15T02:58:47;60756.69;;;-143.79;100.00
25947;BME280;13745;51.470;9.894;2023-02-15T03:01:39;60756.69;;;-143.79;100.00
25947;BME280;13745;51.470;9.894;2023-02-15T03:04:29;60756.69;;;-143.79;100.00
25947;BME280;13745;51.470;9.894;2023-02-15T03:07:19;60756.69;;;-143.79;100.00
25947;BME280;13745;51.470;9.894;2023-02-15T03:10:08;60756.69;;;-143.79;100.00
25947;BME280;13745;51.470;9.894;2023-02-15T03:12:54;60756.69;;;-143.79;100.00
25947;BME280;13745;51.470;9.894;2023-02-15T03:15:40;60756.69;;;-143.79;100.00
25947;BME280;13745;51.470;9.894;2023-02-15T03:18:48;60756.69;;;-143.79;100.00
25947;BME280;13745;51.470;9.894;2023-02-15T03:21:44;60756.69;;;-143.79;100.00
25947;BME280;13745;51.470;9.894;2023-02-15T03:24:36;60756.69;;;-143.79;100.00
25947;BME280;13745;51.470;9.894;2023-02-15T03:27:25;60756.69;;;-143.79;100.00
25947;BME280;13745;51.470;9.894;2023-02-15T03:30:13;60756.69;;;-143.79;100.00
25947;BME280;13745;51.470;9.894;2023-02-15T03:33:00;60756.69;;;-143.79;100.00
25947;BME280;13745;51.470;9.894;2023-02-15T03:35:52;60756.69;;;-143.79;100.00
25947;BME280;13745;51.470;9.894;2023-02-15T03:38:44;60756.69;;;-143.79;100.00
25947;BME280;13745;51.470;9.894;2023-02-15T03:41:38;60756.69;;;-143.79;100.00
25947;BME280;13745;51.470;9.894;2023-02-15T03:44:28;60756.69;;;-143.79;100.00
25947;BME280;13745;51.470;9.894;2023-02-15T03:47:16;60756.69;;;-143.79;100.00
25947;BME280;13745;51.470;9.894;2023-02-15T03:50:05;60756.69;;;-143.79;100.00
25947;BME280;13745;51.470;9.894;2023-02-15T03:53:19;60756.69;;;-143.79;100.00
25947;BME280;13745;51.470;9.894;2023-02-15T03:56:06;60756.69;;;-143.79;100.00
25947;BME280;13745;51.470;9.894;2023-02-15T03:58:53;60756.69;;;-143.79;100.00
25947;BME280;13745;51.470;9.894;2023-02-15T04:02:04;60756.69;;;-143.79;100.00
25947;BME280;13745;51.470;9.894;2023-02-15T04:04:54;60756.69;;;-143.79;100.00
25947;BME280;13745;51.470;9.894;2023-02-15T04:07:39;60756.69;;;-143.79;100.00
25947;BME280;13745;51.470;9.894;2023-02-15T04:10:24;60756.69;;;-143.79;100.00
25947;BME280;13745;51.470;9.894;2023-02-15T04:13:30;60756.69;;;-143.79;100.00
25947;BME280;13745;51.470;9.894;2023-02-15T04:16:17;60756.69;;;-143.79;100.00
25947;BME280;13745;51.470;9.894;2023-02-15T04:19:01;60756.69;;;-143.79;100.00
25947;BME280;13745;51.470;9.894;2023-02-15T04:22:04;60756.69;;;-143.79;100.00
25947;BME280;13745;51.470;9.894;2023-02-15T04:25:06;60756.69;;;-143.79;100.00
25947;BME280;13745;51.470;9.894;2023-02-15T04:27:55;60756.69;;;-143.79;100.00
25947;BME280;13745;51.470;9.894;2023-02-15T04:30:40;60756.69;;;-143.79;100.00
25947;BME280;13745;51.470;9.894;2023-02-15T04:33:26;60756.69;;;-143.79;100.00
25947;BME280;13745;51.470;9.894;2023-02-15T04:36:11;60756.69;;;-143.79;100.00
25947;BME280;13745;51.470;9.894;2023-02-15T04:38:56;60756.69;;;-143.79;100.00
25947;BME280;13745;51.470;9.894;2023-02-15T04:41:41;60756.69;;;-143.79;100.00
25947;BME280;13745;51.470;9.894;2023-02-15T04:44:26;60756.69;;;-143.79;100.00
25947;BME280;13745;51.470;9.894;2023-02-15T04:47:11;60756.69;;;-143.79;100.00
25947;BME280;13745;51.470;9.894;2023-02-15T04:49:58;60756.69;;;-143.79;100.00
25947;BME280;13745;51.470;9.894;2023-02-15T04:52:43;60756.69;;;-143.79;100.00
25947;BME280;13745;51.470;9.894;2023-02-15T04:55:28;60756.69;;;-143.79;100.00
25947;BME280;13745;51.470;9.894;2023-02-15T04:58:13;60756.69;;;-143.79;100.00
25947;BME280;13745;51.470;9.894;2023-02-15T05:00:58;60756.69;;;-143.79;100.00
25947;BME280;13745;51.470;9.894;2023-02-15T05:03:43;60756.69;;;-143.79;100.00
25947;BME280;13745;51.470;9.894;2023-02-15T05:06:30;60756.69;;;-143.79;100.00
25947;BME280;13745;51.470;9.894;2023-02-15T05:09:15;60756.69;;;-143.79;100.00
25947;BME280;13745;51.470;9.894;2023-02-15T05:12:01;60756.69;;;-143.79;100.00
25947;BME280;13745;51.470;9.894;2023-02-15T05:14:46;60756.69;;;-143.79;100.00
25947;BME280;13745;51.470;9.894;2023-02-15T05:17:31;60756.69;;;-143.79;100.00
25947;BME280;13745;51.470;9.894;2023-02-15T05:20:16;60756.69;;;-143.79;100.00
25947;BME280;13745;51.470;9.894;2023-02-15T05:23:03;60756.69;;;-143.79;100.00
25947;BME280;13745;51.470;9.894;2023-02-15T05:25:49;60756.69;;;-143.79;100.00
25947;BME280;13745;51.470;9.894;2023-02-15T05:28:52;60756.69;;;-143.79;100.00
25947;BME280;13745;51.470;9.894;2023-02-15T05:31:37;60756.69;;;-143.79;100.00
25947;BME280;13745;51.470;9.894;2023-02-15T05:34:23;60756.69;;;-143.79;100.00
25947;BME280;13745;51.470;9.894;2023-02-15T05:37:08;60756.69;;;-143.79;100.00
25947;BME280;13745;51.470;9.894;2023-02-15T05:39:54;60756.69;;;-143.79;100.00
25947;BME280;13745;51.470;9.894;2023-02-15T05:42:39;60756.69;;;-143.79;100.00
25947;BME280;13745;51.470;9.894;2023-02-15T05:45:25;60756.69;;;-143.79;100.00
25947;BME280;13745;51.470;9.894;2023-02-15T05:48:10;60756.69;;;-143.79;100.00
25947;BME280;13745;51.470;9.894;2023-02-15T05:50:59;60756.69;;;-143.79;100.00
25947;BME280;13745;51.470;9.894;2023-02-15T05:53:45;60756.69;;;-143.79;100.00
25947;BME280;13745;51.470;9.894;2023-02-15T05:56:32;60756.69;;;-143.79;100.00
25947;BME280;13745;51.470;9.894;2023-02-15T05:59:17;60756.69;;;-143.79;100.00
25947;BME280;13745;51.470;9.894;2023-02-15T06:02:02;60756.69;;;-143.79;100.00
25947;BME280;13745;51.470;9.894;2023-02-15T06:04:47;60756.69;;;-143.79;100.00
25947;BME280;13745;51.470;9.894;2023-02-15T06:07:32;60756.69;;;-143.79;100.00
25947;BME280;13745;51.470;9.894;2023-02-15T06:10:18;60756.69;;;-143.79;100.00
25947;BME280;13745;51.470;9.894;2023-02-15T06:13:04;60756.69;;;-143.79;100.00
25947;BME280;13745;51.470;9.894;2023-02-15T06:15:49;60756.69;;;-143.79;100.00
25947;BME280;13745;51.470;9.894;2023-02-15T06:18:34;60756.69;;;-143.79;100.00
25947;BME280;13745;51.470;9.894;2023-02-15T06:21:20;60756.69;;;-143.79;100.00
25947;BME280;13745;51.470;9.894;2023-02-15T06:24:05;60756.69;;;-143.79;100.00
25947;BME280;13745;51.470;9.894;2023-02-15T06:26:50;60756.69;;;-143.79;100.00
25947;BME280;13745;51.470;9.894;2023-02-15T06:29:37;60756.69;;;-143.79;100.00
25947;BME280;13745;51.470;9.894;2023-02-15T06:32:22;60756.69;;;-143.79;100.00
25947;BME280;13745;51.470;9.894;2023-02-15T06:35:07;60756.69;;;-143.79;100.00
25947;BME280;13745;51.470;9.894;2023-02-15T06:37:53;60756.69;;;-143.79;100.00
25947;BME280;13745;51.470;9.894;2023-02-15T06:40:37;60756.69;;;-143.79;100.00
25947;BME280;13745;51.470;9.894;2023-02-15T06:43:23;60756.69;;;-143.79;100.00
25947;BME280;13745;51.470;9.894;2023-02-15T06:46:09;60756.69;;;-143.79;100.00
25947;BME280;13745;51.470;9.894;2023-02-15T06:48:54;60756.69;;;-143.79;100.00
25947;BME280;13745;51.470;9.894;2023-02-15T06:51:39;60756.69;;;-143.79;100.00
25947;BME280;13745;51.470;9.894;2023-02-15T06:54:25;60756.69;;;-143.79;100.00
25947;BME280;13745;51.470;9.894;2023-02-15T06:57:10;60756.69;;;-143.79;100.00
25947;BME280;13745;51.470;9.894;2023-02-15T06:59:55;60756.69;;;-143.79;100.00
25947;BME280;13745;51.470;9.894;2023-02-15T07:02:43;60756.69;;;-143.79;100.00
25947;BME280;13745;51.470;9.894;2023-02-15T07:05:28;60756.69;;;-143.79;100.00
25947;BME280;13745;51.470;9.894;2023-02-15T07:08:14;60756.69;;;-143.79;100.00
25947;BME280;13745;51.470;9.894;2023-02-15T07:11:00;60756.69;;;-143.79;100.00
25947;BME280;13745;51.470;9.894;2023-02-15T07:13:59;60756.69;;;-143.79;100.00
25947;BME280;13745;51.470;9.894;2023-02-15T07:16:44;60756.69;;;-143.79;100.00
25947;BME280;13745;51.470;9.894;2023-02-15T07:19:30;60756.69;;;-143.79;100.00
25947;BME280;13745;51.470;9.894;2023-02-15T07:22:16;60756.69;;;-143.79;100.00
25947;BME280;13745;51.470;9.894;2023-02-15T07:25:01;60756.69;;;-143.79;100.00
25947;BME280;13745;51.470;9.894;2023-02-15T07:27:46;60756.69;;;-143.79;100.00
25947;BME280;13745;51.470;9.894;2023-02-15T07:30:32;60756.69;;;-143.79;100.00
25947;BME280;13745;51.470;9.894;2023-02-15T07:33:16;60756.69;;;-143.79;100.00
25947;BME280;13745;51.470;9.894;2023-02-15T07:36:09;60756.69;;;-143.79;100.00
25947;BME280;13745;51.470;9.894;2023-02-15T07:38:55;60756.69;;;-143.79;100.00
25947;BME280;13745;51.470;9.894;2023-02-15T07:41:40;60756.69;;;-143.79;100.00
25947;BME280;13745;51.470;9.894;2023-02-15T07:44:29;60756.69;;;-143.79;100.00
25947;BME280;13745;51.470;9.894;2023-02-15T07:47:14;60756.69;;;-143.79;100.00
25947;BME280;13745;51.470;9.894;2023-02-15T07:49:59;60756.69;;;-143.79;100.00
25947;BME280;13745;51.470;9.894;2023-02-15T07:52:45;60756.69;;;-143.79;100.00
25947;BME280;13745;51.470;9.894;2023-02-15T07:55:31;60756.69;;;-143.79;100.00
25947;BME280;13745;51.470;9.894;2023-02-15T07:58:16;60756.69;;;-143.79;100.00
25947;BME280;13745;51.470;9.894;2023-02-15T08:01:00;60756.69;;;-143.79;100.00
25947;BME280;13745;51.470;9.894;2023-02-15T08:03:49;60756.69;;;-143.79;100.00
25947;BME280;13745;51.470;9.894;2023-02-15T08:06:35;60756.69;;;-143.79;100.00
25947;BME280;13745;51.470;9.894;2023-02-15T08:09:22;60756.69;;;-143.79;100.00
25947;BME280;13745;51.470;9.894;2023-02-15T08:12:07;60756.69;;;-143.79;100.00
25947;BME280;13745;51.470;9.894;2023-02-15T08:14:52;60756.69;;;-143.79;100.00
25947;BME280;13745;51.470;9.894;2023-02-15T08:17:37;60756.69;;;-143.79;100.00
25947;BME280;13745;51.470;9.894;2023-02-15T08:20:22;60756.69;;;-143.79;100.00
25947;BME280;13745;51.470;9.894;2023-02-15T08:23:07;60756.69;;;-143.79;100.00
25947;BME280;13745;51.470;9.894;2023-02-15T08:25:53;60756.69;;;-143.79;100.00
25947;BME280;13745;51.470;9.894;2023-02-15T08:28:40;60756.69;;;-143.79;100.00
25947;BME280;13745;51.470;9.894;2023-02-15T08:31:26;60756.69;;;-143.79;100.00
25947;BME280;13745;51.470;9.894;2023-02-15T08:34:14;60756.69;;;-143.79;100.00
25947;BME280;13745;51.470;9.894;2023-02-15T08:36:59;60756.69;;;-143.79;100.00
25947;BME280;13745;51.470;9.894;2023-02-15T08:39:44;60756.69;;;-143.79;100.00
25947;BME280;13745;51.470;9.894;2023-02-15T08:42:32;60756.69;;;-143.79;100.00
25947;BME280;13745;51.470;9.894;2023-02-15T08:45:17;60756.69;;;-143.79;100.00
25947;BME280;13745;51.470;9.894;2023-02-15T08:48:02;60756.69;;;-143.79;100.00
25947;BME280;13745;51.470;9.894;2023-02-15T08:50:47;60756.69;;;-143.79;100.00
25947;BME280;13745;51.470;9.894;2023-02-15T08:53:32;60756.69;;;-143.79;100.00
25947;BME280;13745;51.470;9.894;2023-02-15T08:56:27;100521.75;;;6.39;69.23
25947;BME280;13745;51.470;9.894;2023-02-15T08:59:15;100520.47;;;6.60;69.00
25947;BME280;13745;51.470;9.894;2023-02-15T09:02:01;100511.50;;;6.83;68.23
25947;BME280;13745;51.470;9.894;2023-02-15T09:04:47;100504.44;;;7.17;68.02
25947;BME280;13745;51.470;9.894;2023-02-15T09:07:32;100500.97;;;7.65;67.16
25947;BME280;13745;51.470;9.894;2023-02-15T09:10:17;100487.94;;;8.73;66.54
25947;BME280;13745;51.470;9.894;2023-02-15T09:13:03;100486.91;;;10.54;66.04
25947;BME280;13745;51.470;9.894;2023-02-15T09:15:49;100480.78;;;12.98;62.97
25947;BME280;13745;51.470;9.894;2023-02-15T09:18:36;100472.44;;;15.28;58.95
25947;BME280;13745;51.470;9.894;2023-02-15T09:21:23;100454.19;;;17.11;55.60
25947;BME280;13745;51.470;9.894;2023-02-15T09:24:11;100459.19;;;18.59;52.77
25947;BME280;13745;51.470;9.894;2023-02-15T09:26:56;100457.84;;;19.87;50.30
25947;BME280;13745;51.470;9.894;2023-02-15T09:29:43;100457.25;;;21.22;47.94
25947;BME280;13745;51.470;9.894;2023-02-15T09:32:28;100449.94;;;22.34;45.79
25947;BME280;13745;51.470;9.894;2023-02-15T09:35:13;100456.31;;;23.43;43.61
25947;BME280;13745;51.470;9.894;2023-02-15T09:37:58;100444.25;;;24.24;42.37
25947;BME280;13745;51.470;9.894;2023-02-15T09:40:52;100433.91;;;25.01;40.90
25947;BME280;13745;51.470;9.894;2023-02-15T09:43:47;100443.66;;;25.78;39.54
25947;BME280;13745;51.470;9.894;2023-02-15T09:46:51;100437.09;;;26.28;38.82
25947;BME280;13745;51.470;9.894;2023-02-15T09:49:48;100434.56;;;26.55;38.01
25947;BME280;13745;51.470;9.894;2023-02-15T09:52:57;100431.13;;;26.53;37.79
25947;BME280;13745;51.470;9.894;2023-02-15T09:55:52;100427.72;;;26.65;36.81
25947;BME280;13745;51.470;9.894;2023-02-15T09:58:46;100425.47;;;27.54;35.88
25947;BME280;13745;51.470;9.894;2023-02-15T10:01:42;100429.47;;;28.39;34.73
25947;BME280;13745;51.470;9.894;2023-02-15T10:04:44;100425.47;;;29.07;34.61
25947;BME280;13745;51.470;9.894;2023-02-15T10:07:48;100424.22;;;29.83;34.06
25947;BME280;13745;51.470;9.894;2023-02-15T10:10:45;100425.41;;;30.36;33.26
25947;BME280;13745;51.470;9.894;2023-02-15T10:13:40;100418.44;;;31.12;32.20
25947;BME280;13745;51.470;9.894;2023-02-15T10:16:37;100421.88;;;32.09;31.94
25947;BME280;13745;51.470;9.894;2023-02-15T10:19:35;100419.47;;;32.67;30.73
25947;BME280;13745;51.470;9.894;2023-02-15T10:22:31;100420.63;;;32.74;30.05
25947;BME280;13745;51.470;9.894;2023-02-15T10:25:28;100418.09;;;33.42;29.43
25947;BME280;13745;51.470;9.894;2023-02-15T10:28:18;100414.25;;;33.73;28.73
25947;BME280;13745;51.470;9.894;2023-02-15T10:31:09;100413.03;;;34.61;28.62
25947;BME280;13745;51.470;9.894;2023-02-15T10:34:14;100403.88;;;35.00;28.59
25947;BME280;13745;51.470;9.894;2023-02-15T10:37:15;100404.44;;;35.57;27.70
25947;BME280;13745;51.470;9.894;2023-02-15T10:40:11;100406.09;;;36.53;26.97
25947;BME280;13745;51.470;9.894;2023-02-15T10:43:17;100390.25;;;37.17;26.84
25947;BME280;13745;51.470;9.894;2023-02-15T10:46:12;100391.56;;;38.11;26.15
25947;BME280;13745;51.470;9.894;2023-02-15T10:49:15;100380.56;;;38.91;25.69
25947;BME280;13745;51.470;9.894;2023-02-15T10:52:14;100378.31;;;39.25;25.64
25947;BME280;13745;51.470;9.894;2023-02-15T10:55:07;100364.88;;;39.70;24.54
25947;BME280;13745;51.470;9.894;2023-02-15T10:58:00;100363.56;;;39.80;24.25
25947;BME280;13745;51.470;9.894;2023-02-15T11:00:54;100363.31;;;39.52;24.34
25947;BME280;13745;51.470;9.894;2023-02-15T11:07:17;100367.63;;;40.80;23.77
25947;BME280;13745;51.470;9.894;2023-02-15T11:10:12;100358.38;;;40.74;23.84
25947;BME280;13745;51.470;9.894;2023-02-15T11:13:03;100359.66;;;41.14;23.46
25947;BME280;13745;51.470;9.894;2023-02-15T11:15:53;100358.78;;;41.57;23.09
25947;BME280;13745;51.470;9.894;2023-02-15T11:18:41;100363.72;;;41.46;22.33
25947;BME280;13745;51.470;9.894;2023-02-15T11:21:31;100362.56;;;41.34;22.36
25947;BME280;13745;51.470;9.894;2023-02-15T11:24:27;100362.03;;;41.45;22.57
25947;BME280;13745;51.470;9.894;2023-02-15T11:27:20;100360.94;;;41.40;22.95
25947;BME280;13745;51.470;9.894;2023-02-15T11:30:11;100363.31;;;41.71;22.19
25947;BME280;13745;51.470;9.894;2023-02-15T11:32:59;100366.22;;;42.45;22.36
25947;BME280;13745;51.470;9.894;2023-02-15T11:35:49;100359.09;;;42.99;21.64
25947;BME280;13745;51.470;9.894;2023-02-15T11:38:36;100352.72;;;42.72;21.38
25947;BME280;13745;51.470;9.894;2023-02-15T11:41:28;100354.63;;;42.84;21.24
25947;BME280;13745;51.470;9.894;2023-02-15T11:44:18;100351.75;;;42.45;21.74
25947;BME280;13745;51.470;9.894;2023-02-15T11:47:08;100354.56;;;42.58;22.03
25947;BME280;13745;51.470;9.894;2023-02-15T11:49:56;100343.88;;;42.56;21.68
25947;BME280;13745;51.470;9.894;2023-02-15T11:52:42;100345.47;;;43.05;20.98
25947;BME280;13745;51.470;9.894;2023-02-15T11:55:28;100344.41;;;43.06;21.48
25947;BME280;13745;51.470;9.894;2023-02-15T11:58:23;100337.25;;;43.18;21.27
25947;BME280;13745;51.470;9.894;2023-02-15T12:01:16;100333.06;;;43.16;21.51
25947;BME280;13745;51.470;9.894;2023-02-15T12:04:06;100317.31;;;43.64;20.55
25947;BME280;13745;51.470;9.894;2023-02-15T12:06:57;100321.09;;;43.17;21.47
25947;BME280;13745;51.470;9.894;2023-02-15T12:09:48;100324.41;;;42.79;21.00
25947;BME280;13745;51.470;9.894;2023-02-15T12:12:35;100335.91;;;42.55;21.68
25947;BME280;13745;51.470;9.894;2023-02-15T12:15:30;100328.97;;;42.59;21.18
25947;BME280;13745;51.470;9.894;2023-02-15T12:18:25;100321.97;;;41.67;21.58
25947;BME280;13745;51.470;9.894;2023-02-15T12:21:25;100326.91;;;41.29;21.74
25947;BME280;13745;51.470;9.894;2023-02-15T12:24:17;100312.47;;;41.57;22.02
25947;BME280;13745;51.470;9.894;2023-02-15T12:27:05;100319.97;;;42.17;21.80
25947;BME280;13745;51.470;9.894;2023-02-15T12:29:59;100315.91;;;42.48;21.57
25947;BME280;13745;51.470;9.894;2023-02-15T12:32:50;100321.03;;;41.82;21.40
25947;BME280;13745;51.470;9.894;2023-02-15T12:35:36;100314.81;;;41.94;21.21
25947;BME280;13745;51.470;9.894;2023-02-15T12:38:23;100303.19;;;41.79;21.71
25947;BME280;13745;51.470;9.894;2023-02-15T12:41:22;100310.38;;;41.59;21.84
25947;BME280;13745;51.470;9.894;2023-02-15T12:44:16;100303.19;;;41.02;21.86
25947;BME280;13745;51.470;9.894;2023-02-15T12:47:04;100307.78;;;41.72;21.75
25947;BME280;13745;51.470;9.894;2023-02-15T12:50:06;100301.06;;;42.57;21.21
25947;BME280;13745;51.470;9.894;2023-02-15T12:53:06;100300.84;;;42.58;21.10
25947;BME280;13745;51.470;9.894;2023-02-15T12:55:54;100304.03;;;42.62;20.40
25947;BME280;13745;51.470;9.894;2023-02-15T12:58:40;100294.47;;;42.45;20.63
25947;BME280;13745;51.470;9.894;2023-02-15T13:01:31;100283.72;;;42.23;20.71
25947;BME280;13745;51.470;9.894;2023-02-15T13:04:22;100292.22;;;42.07;21.15
25947;BME280;13745;51.470;9.894;2023-02-15T13:07:10;100285.19;;;41.50;20.87
25947;BME280;13745;51.470;9.894;2023-02-15T13:09:55;100289.25;;;41.33;20.83
25947;BME280;13745;51.470;9.894;2023-02-15T13:12:46;100270.00;;;39.83;21.96
25947;BME280;13745;51.470;9.894;2023-02-15T13:15:34;100271.28;;;38.82;22.81
25947;BME280;13745;51.470;9.894;2023-02-15T13:18:30;100271.28;;;37.73;22.85
25947;BME280;13745;51.470;9.894;2023-02-15T13:21:19;100267.75;;;36.50;23.52
25947;BME280;13745;51.470;9.894;2023-02-15T13:24:13;100263.22;;;36.08;24.00
25947;BME280;13745;51.470;9.894;2023-02-15T13:27:01;100267.31;;;35.86;23.85
25947;BME280;13745;51.470;9.894;2023-02-15T13:29:50;100251.38;;;34.61;24.21
25947;BME280;13745;51.470;9.894;2023-02-15T13:32:37;100257.16;;;34.39;24.38
25947;BME280;13745;51.470;9.894;2023-02-15T13:35:25;100246.94;;;33.50;25.29
25947;BME280;13745;51.470;9.894;2023-02-15T13:38:35;100245.75;;;32.96;25.07
25947;BME280;13745;51.470;9.894;2023-02-15T13:41:32;100246.84;;;31.96;26.33
25947;BME280;13745;51.470;9.894;2023-02-15T13:44:25;100238.53;;;31.38;26.73
25947;BME280;13745;51.470;9.894;2023-02-15T13:47:17;100235.41;;;30.80;26.63
25947;BME280;13745;51.470;9.894;2023-02-15T13:50:18;100233.03;;;30.00;27.48
25947;BME280;13745;51.470;9.894;2023-02-15T13:53:23;100239.69;;;28.44;28.48
25947;BME280;13745;51.470;9.894;2023-02-15T13:56:17;100233.66;;;27.67;29.16
25947;BME280;13745;51.470;9.894;2023-02-15T13:59:28;100254.94;;;25.94;30.05
25947;BME280;13745;51.470;9.894;2023-02-15T14:02:30;100239.78;;;25.23;30.48
25947;BME280;13745;51.470;9.894;2023-02-15T14:05:28;100236.00;;;24.97;31.42
25947;BME280;13745;51.470;9.894;2023-02-15T14:08:27;100247.47;;;24.68;31.05
25947;BME280;13745;51.470;9.894;2023-02-15T14:11:21;100245.16;;;24.14;32.03
25947;BME280;13745;51.470;9.894;2023-02-15T14:14:36;100241.34;;;22.86;32.34
25947;BME280;13745;51.470;9.894;2023-02-15T14:17:35;100234.06;;;22.17;33.00
25947;BME280;13745;51.470;9.894;2023-02-15T14:20:41;100240.09;;;21.22;34.30
25947;BME280;13745;51.470;9.894;2023-02-15T14:23:37;100241.06;;;20.79;34.72
25947;BME280;13745;51.470;9.894;2023-02-15T14:26:31;100239.94;;;20.40;34.94
25947;BME280;13745;51.470;9.894;2023-02-15T14:29:29;100245.06;;;19.76;35.78
25947;BME280;13745;51.470;9.894;2023-02-15T14:32:26;100239.50;;;19.11;36.24
25947;BME280;13745;51.470;9.894;2023-02-15T14:35:16;100240.03;;;18.41;37.04
25947;BME280;13745;51.470;9.894;2023-02-15T14:38:06;100238.94;;;17.59;38.20